Time;durP1;ratioP1;P1;durP2;ratioP2;P2;SDS_P1;SDS_P2;PMS_P1;PMS_P2;Temp;Humidity;BMP_temperature;BMP_pressure;BME280_temperature;BME280_humidity;BME280_pressure;Samples;Min_cycle;Max_cycle;Signal;HPM_P1;HPM_P2
2024/01/16 00:02:20;;;;;;;14.88;5.57;;;;;;;;;;4965724;28;25065;-69
2024/01/16 00:04:46;;;;;;;13.32;5.03;;;;;;;;;;4966187;28;25068;-70
2024/01/16 00:07:12;;;;;;;14.18;3.97;;;;;;;;;;4975454;28;25079;-71
2024/01/16 00:09:38;;;;;;;12.10;4.32;;;;;;;;;;4989933;28;25074;-72
2024/01/16 00:12:04;;;;;;;13.52;4.82;;;;;;;;;;4979235;28;25068;-70
2024/01/16 00:14:30;;;;;;;20.60;5.78;;;;;;;;;;4966516;28;25072;-70
2024/01/16 00:16:56;;;;;;;19.02;4.72;;;;;;;;;;4967853;28;25145;-70
2024/01/16 00:19:22;;;;;;;16.40;4.82;;;;;;;;;;4967034;28;25205;-68
2024/01/16 00:21:48;;;;;;;17.83;5.38;;;;;;;;;;4983506;28;25062;-67
2024/01/16 00:24:14;;;;;;;16.35;4.88;;;;;;;;;;4966483;28;25121;-69
2024/01/16 00:26:40;;;;;;;14.35;5.35;;;;;;;;;;4983252;28;25072;-70
2024/01/16 00:29:06;;;;;;;14.43;5.30;;;;;;;;;;4979122;28;25053;-69
2024/01/16 00:31:32;;;;;;;14.32;5.18;;;;;;;;;;4964805;28;25096;-70
2024/01/16 00:33:58;;;;;;;16.63;4.70;;;;;;;;;;4966746;28;25085;-71
2024/01/16 00:36:24;;;;;;;11.90;4.88;;;;;;;;;;4964023;28;25053;-69
2024/01/16 00:38:50;;;;;;;17.17;5.80;;;;;;;;;;4975356;28;25069;-70
2024/01/16 00:41:16;;;;;;;17.98;5.05;;;;;;;;;;4963581;28;25071;-69
2024/01/16 00:43:43;;;;;;;14.32;5.78;;;;;;;;;;4964557;28;25172;-69
2024/01/16 00:46:09;;;;;;;13.18;4.57;;;;;;;;;;4962429;28;25139;-71
2024/01/16 00:48:36;;;;;;;12.65;4.55;;;;;;;;;;4962554;28;25157;-69
2024/01/16 00:51:02;;;;;;;22.90;5.28;;;;;;;;;;4963861;28;25052;-69
2024/01/16 00:53:28;;;;;;;18.23;4.40;;;;;;;;;;4964766;28;25075;-69
2024/01/16 00:55:54;;;;;;;15.18;4.18;;;;;;;;;;4950436;28;25077;-70
2024/01/16 00:58:20;;;;;;;19.35;4.28;;;;;;;;;;4946730;28;25148;-71
2024/01/16 01:00:46;;;;;;;19.08;4.78;;;;;;;;;;4967792;28;25065;-71
2024/01/16 01:03:12;;;;;;;15.57;4.97;;;;;;;;;;4968152;28;25066;-69
2024/01/16 01:05:38;;;;;;;14.45;4.63;;;;;;;;;;4974821;28;25060;-69
2024/01/16 01:08:04;;;;;;;15.02;4.40;;;;;;;;;;4983543;28;25072;-71
2024/01/16 01:10:30;;;;;;;13.60;4.63;;;;;;;;;;4985513;28;25118;-70
2024/01/16 01:12:56;;;;;;;16.20;4.38;;;;;;;;;;4963608;28;25149;-72
2024/01/16 01:15:22;;;;;;;14.80;4.18;;;;;;;;;;4966031;28;25144;-72
2024/01/16 01:17:49;;;;;;;11.13;4.50;;;;;;;;;;4961076;28;25092;-70
2024/01/16 01:20:15;;;;;;;19.38;5.10;;;;;;;;;;4979331;28;25095;-72
2024/01/16 01:22:42;;;;;;;15.23;4.25;;;;;;;;;;4969536;28;25064;-72
2024/01/16 01:25:08;;;;;;;10.05;4.43;;;;;;;;;;4966617;28;25134;-73
2024/01/16 01:27:34;;;;;;;15.32;4.53;;;;;;;;;;4999982;28;25069;-70
2024/01/16 01:30:00;;;;;;;18.45;4.65;;;;;;;;;;5000804;28;25066;-71
2024/01/16 01:32:26;;;;;;;13.77;4.43;;;;;;;;;;4990185;28;25100;-70
2024/01/16 01:34:53;;;;;;;13.60;4.88;;;;;;;;;;5003306;28;25097;-70
2024/01/16 01:37:18;;;;;;;8.63;4.10;;;;;;;;;;4984622;28;25059;-69
2024/01/16 01:39:44;;;;;;;12.98;4.75;;;;;;;;;;5002517;28;25054;-70
2024/01/16 01:42:10;;;;;;;12.20;4.80;;;;;;;;;;5000356;28;25080;-71
2024/01/16 01:44:37;;;;;;;16.50;5.18;;;;;;;;;;5001762;28;25088;-69
2024/01/16 01:47:03;;;;;;;13.68;4.47;;;;;;;;;;5001288;28;25051;-70
2024/01/16 01:49:29;;;;;;;19.80;5.18;;;;;;;;;;5003385;28;25074;-69
2024/01/16 01:51:56;;;;;;;12.88;4.50;;;;;;;;;;5005915;28;25143;-71
2024/01/16 01:54:22;;;;;;;12.00;3.80;;;;;;;;;;4987114;28;25154;-72
2024/01/16 01:56:49;;;;;;;9.63;3.47;;;;;;;;;;4986702;28;25118;-70
2024/01/16 01:59:20;;;;;;;13.00;3.47;;;;;;;;;;5006248;28;25076;-71
2024/01/16 02:01:47;;;;;;;10.02;2.83;;;;;;;;;;5007887;28;25121;-70
2024/01/16 02:04:17;;;;;;;19.95;2.88;;;;;;;;;;4984112;28;25073;-70
2024/01/16 02:06:44;;;;;;;11.85;2.78;;;;;;;;;;4966506;28;25083;-71
2024/01/16 02:09:13;;;;;;;9.88;2.50;;;;;;;;;;5000697;28;25077;-70
2024/01/16 02:11:39;;;;;;;11.90;2.75;;;;;;;;;;4984657;28;25128;-70
2024/01/16 02:14:05;;;;;;;8.32;2.90;;;;;;;;;;5001026;28;25119;-70
2024/01/16 02:16:37;;;;;;;11.38;2.78;;;;;;;;;;5002777;28;25060;-69
2024/01/16 02:19:03;;;;;;;13.07;2.90;;;;;;;;;;5004111;28;25098;-69
2024/01/16 02:21:29;;;;;;;10.30;3.03;;;;;;;;;;4996964;28;25096;-68
2024/01/16 02:23:55;;;;;;;9.63;3.45;;;;;;;;;;4985424;28;25106;-68
2024/01/16 02:26:21;;;;;;;10.27;3.60;;;;;;;;;;5006013;28;25145;-68
2024/01/16 02:28:47;;;;;;;13.40;3.65;;;;;;;;;;5002210;28;25154;-71
2024/01/16 02:31:14;;;;;;;10.10;3.67;;;;;;;;;;5003689;28;25067;-69
2024/01/16 02:33:40;;;;;;;12.75;3.85;;;;;;;;;;4983338;28;25045;-70
2024/01/16 02:36:06;;;;;;;9.57;4.00;;;;;;;;;;5001055;28;25096;-69
2024/01/16 02:38:32;;;;;;;11.93;3.60;;;;;;;;;;5001018;28;25092;-71
2024/01/16 02:40:58;;;;;;;10.15;3.90;;;;;;;;;;5001484;28;25140;-68
2024/01/16 02:43:26;;;;;;;8.80;3.70;;;;;;;;;;5002074;28;25079;-69
2024/01/16 02:45:52;;;;;;;13.02;4.57;;;;;;;;;;5002192;28;25057;-70
2024/01/16 02:48:18;;;;;;;12.20;4.40;;;;;;;;;;4999657;28;25063;-71
2024/01/16 02:50:44;;;;;;;8.43;4.40;;;;;;;;;;5001274;28;25053;-71
2024/01/16 02:53:10;;;;;;;12.20;4.50;;;;;;;;;;5001733;28;25066;-70
2024/01/16 02:55:36;;;;;;;9.95;4.53;;;;;;;;;;5008593;28;25123;-69
2024/01/16 02:58:03;;;;;;;7.78;4.70;;;;;;;;;;5004189;28;25076;-68
2024/01/16 03:00:29;;;;;;;9.63;4.88;;;;;;;;;;5008738;28;25114;-69
2024/01/16 03:02:55;;;;;;;11.77;5.10;;;;;;;;;;5003005;28;25064;-70
2024/01/16 03:05:21;;;;;;;13.15;5.18;;;;;;;;;;5005698;28;25120;-68
2024/01/16 03:07:47;;;;;;;20.80;5.38;;;;;;;;;;5014045;28;25083;-69
2024/01/16 03:10:13;;;;;;;7.95;4.68;;;;;;;;;;5005733;28;25124;-69
2024/01/16 03:12:39;;;;;;;12.63;4.82;;;;;;;;;;4993620;28;25168;-72
2024/01/16 03:15:05;;;;;;;15.40;5.43;;;;;;;;;;5005265;28;25063;-68
2024/01/16 03:17:31;;;;;;;11.88;4.18;;;;;;;;;;5013982;28;25051;-69
2024/01/16 03:19:57;;;;;;;14.98;3.92;;;;;;;;;;5006084;28;25060;-67
2024/01/16 03:22:24;;;;;;;13.60;3.85;;;;;;;;;;5012419;28;25101;-68
2024/01/16 03:24:50;;;;;;;8.68;3.30;;;;;;;;;;5018299;28;25059;-71
2024/01/16 03:27:16;;;;;;;11.70;3.47;;;;;;;;;;5010007;28;25056;-68
2024/01/16 03:29:42;;;;;;;10.57;4.30;;;;;;;;;;5013910;28;25081;-73
2024/01/16 03:32:08;;;;;;;9.25;4.13;;;;;;;;;;5016298;28;25081;-70
2024/01/16 03:34:34;;;;;;;13.25;4.13;;;;;;;;;;5012502;28;25119;-69
2024/01/16 03:37:00;;;;;;;9.23;4.10;;;;;;;;;;5013991;28;25109;-68
2024/01/16 03:39:26;;;;;;;11.60;3.92;;;;;;;;;;5007863;28;25124;-73
2024/01/16 03:41:52;;;;;;;11.13;3.42;;;;;;;;;;5006538;28;25072;-70
2024/01/16 03:44:18;;;;;;;11.40;4.43;;;;;;;;;;5000992;28;25072;-70
2024/01/16 03:46:44;;;;;;;20.23;3.75;;;;;;;;;;5005491;28;25066;-70
2024/01/16 03:49:10;;;;;;;15.40;4.25;;;;;;;;;;5009335;28;25083;-69
2024/01/16 03:51:36;;;;;;;15.50;3.75;;;;;;;;;;5006184;28;25110;-70
2024/01/16 03:54:02;;;;;;;12.40;4.10;;;;;;;;;;5011829;28;25078;-69
2024/01/16 03:56:28;;;;;;;19.38;4.43;;;;;;;;;;5002978;28;25125;-71
2024/01/16 03:58:54;;;;;;;18.60;4.13;;;;;;;;;;5005204;28;25160;-70
2024/01/16 04:01:30;;;;;;;17.27;3.28;;;;;;;;;;5006502;28;25097;-71
2024/01/16 04:03:56;;;;;;;11.98;3.10;;;;;;;;;;5005562;28;25128;-72
2024/01/16 04:06:22;;;;;;;9.63;3.67;;;;;;;;;;4994624;28;25085;-71
2024/01/16 04:08:48;;;;;;;20.83;5.00;;;;;;;;;;4990065;28;25138;-72
2024/01/16 04:11:14;;;;;;;23.85;4.20;;;;;;;;;;5007924;28;25106;-72
2024/01/16 04:13:40;;;;;;;14.73;4.53;;;;;;;;;;5011437;28;25099;-68
2024/01/16 04:16:07;;;;;;;13.27;4.10;;;;;;;;;;5007399;28;25141;-70
2024/01/16 04:18:39;;;;;;;13.57;4.35;;;;;;;;;;4993482;28;25049;-69
2024/01/16 04:21:06;;;;;;;19.48;4.95;;;;;;;;;;5016493;28;25069;-69
2024/01/16 04:23:32;;;;;;;10.30;3.65;;;;;;;;;;5017913;28;25114;-69
2024/01/16 04:25:58;;;;;;;13.70;4.13;;;;;;;;;;4997600;28;25073;-69
2024/01/16 04:28:23;;;;;;;11.95;3.15;;;;;;;;;;5008987;28;25051;-69
2024/01/16 04:30:50;;;;;;;13.85;3.55;;;;;;;;;;5007971;28;24985;-71
2024/01/16 04:33:16;;;;;;;12.57;3.88;;;;;;;;;;5011943;28;25060;-70
2024/01/16 04:35:42;;;;;;;15.90;3.85;;;;;;;;;;5006819;28;25052;-72
2024/01/16 04:38:08;;;;;;;17.38;3.33;;;;;;;;;;5002048;28;25084;-72
2024/01/16 04:40:34;;;;;;;9.80;3.55;;;;;;;;;;4982433;28;25045;-73
2024/01/16 04:43:00;;;;;;;12.80;3.60;;;;;;;;;;5004618;28;25087;-69
2024/01/16 04:45:26;;;;;;;12.82;4.13;;;;;;;;;;5004748;28;25106;-69
2024/01/16 04:47:52;;;;;;;10.30;4.32;;;;;;;;;;4986489;28;25159;-70
2024/01/16 04:50:19;;;;;;;19.15;4.38;;;;;;;;;;5004026;28;25110;-71
2024/01/16 04:52:45;;;;;;;17.20;5.95;;;;;;;;;;5015820;28;25077;-69
2024/01/16 04:55:11;;;;;;;8.55;4.03;;;;;;;;;;5009851;28;25115;-69
2024/01/16 04:57:37;;;;;;;11.77;4.10;;;;;;;;;;5003253;28;25065;-70
2024/01/16 05:00:06;;;;;;;14.68;3.85;;;;;;;;;;5001599;28;25094;-70
2024/01/16 05:02:33;;;;;;;14.55;3.65;;;;;;;;;;5006198;28;25148;-67
2024/01/16 05:04:59;;;;;;;9.32;3.47;;;;;;;;;;5004784;28;25141;-68
2024/01/16 05:07:26;;;;;;;24.70;4.45;;;;;;;;;;4989911;28;25148;-68
2024/01/16 05:09:52;;;;;;;10.60;3.80;;;;;;;;;;5005374;28;25097;-71
2024/01/16 05:12:18;;;;;;;19.63;3.22;;;;;;;;;;5001368;28;25136;-69
2024/01/16 05:14:44;;;;;;;13.50;3.70;;;;;;;;;;5007893;28;25059;-72
2024/01/16 05:17:10;;;;;;;9.73;3.30;;;;;;;;;;5005378;28;25087;-69
2024/01/16 05:19:36;;;;;;;17.60;3.70;;;;;;;;;;5005384;28;25065;-70
2024/01/16 05:22:02;;;;;;;10.63;3.45;;;;;;;;;;4994224;28;25073;-68
2024/01/16 05:24:28;;;;;;;12.70;3.75;;;;;;;;;;4992433;28;25173;-69
2024/01/16 05:26:54;;;;;;;11.13;3.55;;;;;;;;;;5006311;28;25091;-70
2024/01/16 05:29:20;;;;;;;13.82;4.63;;;;;;;;;;5006863;28;25061;-73
2024/01/16 05:31:46;;;;;;;10.00;3.88;;;;;;;;;;5004679;28;25075;-69
2024/01/16 05:34:12;;;;;;;9.25;3.78;;;;;;;;;;5006086;28;25046;-72
2024/01/16 05:36:39;;;;;;;23.92;4.32;;;;;;;;;;5003303;28;25078;-71
2024/01/16 05:39:05;;;;;;;15.18;7.57;;;;;;;;;;5003263;28;25077;-70
2024/01/16 05:41:34;;;;;;;10.65;4.80;;;;;;;;;;5008294;28;25121;-70
2024/01/16 05:44:03;;;;;;;13.75;4.82;;;;;;;;;;5002477;28;25125;-72
2024/01/16 05:46:29;;;;;;;14.32;3.80;;;;;;;;;;5003602;28;25111;-72
2024/01/16 05:48:55;;;;;;;13.57;4.03;;;;;;;;;;5003390;28;25058;-70
2024/01/16 05:51:21;;;;;;;17.55;4.70;;;;;;;;;;4988706;28;25062;-69
2024/01/16 05:53:47;;;;;;;15.90;3.88;;;;;;;;;;5006370;28;25074;-70
2024/01/16 05:56:14;;;;;;;10.18;3.95;;;;;;;;;;5005742;28;25054;-71
2024/01/16 05:58:40;;;;;;;16.30;3.85;;;;;;;;;;5005209;28;25095;-69
2024/01/16 06:01:06;;;;;;;16.35;4.18;;;;;;;;;;5003578;28;25123;-71
2024/01/16 06:03:32;;;;;;;8.55;4.18;;;;;;;;;;5004968;28;25142;-70
2024/01/16 06:05:58;;;;;;;13.63;3.63;;;;;;;;;;5002911;28;25067;-70
2024/01/16 06:08:25;;;;;;;12.77;3.35;;;;;;;;;;5004199;28;25077;-72
2024/01/16 06:10:51;;;;;;;15.93;4.10;;;;;;;;;;4998747;28;25084;-71
2024/01/16 06:13:19;;;;;;;12.77;3.67;;;;;;;;;;5004000;28;25147;-72
2024/01/16 06:15:45;;;;;;;16.23;3.67;;;;;;;;;;5003356;28;24884;-69
2024/01/16 06:18:11;;;;;;;15.32;3.25;;;;;;;;;;4982028;28;25132;-70
2024/01/16 06:20:37;;;;;;;9.65;3.55;;;;;;;;;;5000720;28;25081;-69
2024/01/16 06:23:03;;;;;;;10.82;3.45;;;;;;;;;;4998470;28;25103;-70
2024/01/16 06:25:30;;;;;;;13.02;4.05;;;;;;;;;;4987337;28;25069;-70
2024/01/16 06:27:56;;;;;;;19.38;4.03;;;;;;;;;;5006491;28;24997;-70
2024/01/16 06:30:25;;;;;;;10.48;3.70;;;;;;;;;;5012164;28;25063;-70
2024/01/16 06:32:51;;;;;;;10.57;3.88;;;;;;;;;;5008296;28;25057;-70
2024/01/16 06:35:17;;;;;;;12.30;4.10;;;;;;;;;;5007633;28;25100;-71
2024/01/16 06:37:43;;;;;;;15.90;4.47;;;;;;;;;;5007512;28;25163;-72
2024/01/16 06:40:09;;;;;;;14.15;3.95;;;;;;;;;;4999983;28;25076;-72
2024/01/16 06:42:38;;;;;;;18.30;4.28;;;;;;;;;;5009320;28;25099;-73
2024/01/16 06:45:05;;;;;;;11.80;4.22;;;;;;;;;;5007618;28;25138;-71
2024/01/16 06:47:31;;;;;;;14.55;3.85;;;;;;;;;;5011599;28;25104;-72
2024/01/16 06:49:57;;;;;;;23.77;4.35;;;;;;;;;;4993320;28;25076;-72
2024/01/16 06:52:24;;;;;;;13.25;4.22;;;;;;;;;;5007928;28;25078;-70
2024/01/16 06:54:50;;;;;;;12.07;3.95;;;;;;;;;;4991952;28;25058;-71
2024/01/16 06:57:16;;;;;;;12.32;3.47;;;;;;;;;;5007751;28;25070;-69
2024/01/16 06:59:42;;;;;;;17.85;4.03;;;;;;;;;;5013650;28;25053;-73
2024/01/16 07:02:08;;;;;;;18.08;3.85;;;;;;;;;;4995220;28;25044;-72
2024/01/16 07:04:34;;;;;;;12.25;3.95;;;;;;;;;;4995788;28;25057;-72
2024/01/16 07:07:01;;;;;;;14.35;3.95;;;;;;;;;;4989145;28;25078;-68
2024/01/16 07:09:27;;;;;;;16.42;3.67;;;;;;;;;;4988813;28;25122;-70
2024/01/16 07:11:53;;;;;;;15.57;3.45;;;;;;;;;;4988629;28;25071;-71
2024/01/16 07:14:19;;;;;;;15.02;3.38;;;;;;;;;;5005760;28;25058;-75
2024/01/16 07:16:45;;;;;;;15.75;3.75;;;;;;;;;;5009720;28;25061;-70
2024/01/16 07:19:14;;;;;;;12.85;4.00;;;;;;;;;;5007856;28;25149;-70
2024/01/16 07:21:40;;;;;;;16.02;4.43;;;;;;;;;;5009943;28;25063;-69
2024/01/16 07:24:06;;;;;;;16.02;3.85;;;;;;;;;;4988766;28;25054;-70
2024/01/16 07:26:32;;;;;;;16.67;4.15;;;;;;;;;;5006041;28;25066;-71
2024/01/16 07:28:58;;;;;;;13.05;4.05;;;;;;;;;;4996861;28;25046;-70
2024/01/16 07:31:24;;;;;;;15.65;4.05;;;;;;;;;;5006903;28;25079;-69
2024/01/16 07:33:50;;;;;;;19.35;4.10;;;;;;;;;;5011487;28;25158;-72
2024/01/16 07:36:16;;;;;;;10.30;3.72;;;;;;;;;;5007137;28;25066;-69
2024/01/16 07:38:43;;;;;;;16.55;3.63;;;;;;;;;;5004323;28;25084;-70
2024/01/16 07:41:09;;;;;;;11.93;4.03;;;;;;;;;;5008826;28;25093;-71
2024/01/16 07:43:36;;;;;;;16.38;3.40;;;;;;;;;;5006025;28;25286;-74
2024/01/16 07:46:03;;;;;;;15.90;4.50;;;;;;;;;;5007705;28;25047;-71
2024/01/16 07:48:29;;;;;;;11.57;4.35;;;;;;;;;;4994421;28;25100;-72
2024/01/16 07:50:55;;;;;;;10.02;3.38;;;;;;;;;;4994707;28;25066;-75
2024/01/16 07:53:22;;;;;;;10.60;3.78;;;;;;;;;;5007865;28;25100;-75
2024/01/16 07:55:49;;;;;;;12.00;4.32;;;;;;;;;;5008673;28;25073;-73
2024/01/16 07:58:15;;;;;;;11.23;3.92;;;;;;;;;;5006309;28;25154;-71
2024/01/16 08:00:41;;;;;;;14.38;4.07;;;;;;;;;;5006455;28;25090;-74
2024/01/16 08:03:11;;;;;;;8.60;4.03;;;;;;;;;;4986492;28;25151;-71
2024/01/16 08:05:37;;;;;;;13.77;4.13;;;;;;;;;;5003966;28;25138;-75
2024/01/16 08:08:03;;;;;;;15.65;4.18;;;;;;;;;;5004858;28;25134;-74
2024/01/16 08:10:29;;;;;;;12.15;3.97;;;;;;;;;;5004467;28;25095;-75
2024/01/16 08:12:55;;;;;;;15.07;4.70;;;;;;;;;;5005749;28;25111;-73
2024/01/16 08:15:21;;;;;;;9.18;3.60;;;;;;;;;;5003568;28;25045;-72
2024/01/16 08:17:47;;;;;;;17.10;4.22;;;;;;;;;;4988226;28;25094;-71
2024/01/16 08:20:14;;;;;;;16.92;4.68;;;;;;;;;;5003568;28;25140;-72
2024/01/16 08:22:40;;;;;;;11.27;4.60;;;;;;;;;;5004670;28;25075;-72
2024/01/16 08:25:06;;;;;;;9.35;4.45;;;;;;;;;;5007989;28;25063;-74
2024/01/16 08:27:32;;;;;;;18.27;4.13;;;;;;;;;;5006250;28;25076;-73
2024/01/16 08:29:59;;;;;;;11.38;4.68;;;;;;;;;;5005258;28;25068;-72
2024/01/16 08:32:25;;;;;;;10.52;4.30;;;;;;;;;;5009082;28;25168;-75
2024/01/16 08:34:51;;;;;;;17.58;4.60;;;;;;;;;;4990070;28;25133;-73
2024/01/16 08:37:17;;;;;;;10.18;4.00;;;;;;;;;;4997698;28;25063;-73
2024/01/16 08:39:43;;;;;;;12.82;4.07;;;;;;;;;;5018970;28;25072;-74
2024/01/16 08:42:11;;;;;;;11.43;3.78;;;;;;;;;;4991436;28;25078;-72
2024/01/16 08:44:39;;;;;;;12.00;4.15;;;;;;;;;;4986874;28;25053;-72
2024/01/16 08:47:05;;;;;;;11.52;3.88;;;;;;;;;;5001290;28;25059;-71
2024/01/16 08:49:32;;;;;;;18.60;4.47;;;;;;;;;;5008665;28;25094;-70
2024/01/16 08:51:59;;;;;;;11.40;3.80;;;;;;;;;;4990895;28;25147;-75
2024/01/16 08:54:26;;;;;;;13.55;4.82;;;;;;;;;;5008074;28;25094;-74
2024/01/16 08:56:52;;;;;;;15.30;4.43;;;;;;;;;;4985788;28;25073;-69
2024/01/16 08:59:18;;;;;;;14.93;4.68;;;;;;;;;;5003794;28;25013;-71
2024/01/16 09:01:44;;;;;;;12.90;4.15;;;;;;;;;;5001961;28;25054;-71
2024/01/16 09:04:11;;;;;;;14.70;3.50;;;;;;;;;;4987601;28;25107;-72
2024/01/16 09:06:37;;;;;;;9.48;4.20;;;;;;;;;;5002522;28;25141;-70
2024/01/16 09:09:04;;;;;;;9.55;3.40;;;;;;;;;;5011104;28;25117;-75
2024/01/16 09:11:31;;;;;;;13.82;4.15;;;;;;;;;;5006411;28;25057;-74
2024/01/16 09:13:58;;;;;;;14.20;4.10;;;;;;;;;;4987033;28;25067;-70
2024/01/16 09:16:24;;;;;;;11.98;3.85;;;;;;;;;;5002432;28;25098;-71
2024/01/16 09:18:50;;;;;;;8.20;4.10;;;;;;;;;;5008871;28;25151;-73
2024/01/16 09:21:16;;;;;;;15.80;4.35;;;;;;;;;;5006582;28;25167;-73
2024/01/16 09:23:42;;;;;;;12.05;4.00;;;;;;;;;;5003517;28;25096;-73
2024/01/16 09:26:08;;;;;;;9.23;3.90;;;;;;;;;;5005415;28;25107;-76
2024/01/16 09:28:34;;;;;;;10.50;4.18;;;;;;;;;;5006800;28;25051;-75
2024/01/16 09:31:00;;;;;;;11.43;3.80;;;;;;;;;;4991613;28;25042;-71
2024/01/16 09:33:26;;;;;;;9.10;3.20;;;;;;;;;;4988133;28;25053;-73
2024/01/16 09:35:52;;;;;;;11.05;3.78;;;;;;;;;;4991764;28;25049;-67
2024/01/16 09:38:18;;;;;;;11.30;3.83;;;;;;;;;;5003831;28;25135;-71
2024/01/16 09:40:46;;;;;;;10.88;3.58;;;;;;;;;;5007428;28;25070;-73
2024/01/16 09:43:12;;;;;;;10.65;4.25;;;;;;;;;;5012498;28;25077;-73
2024/01/16 09:45:38;;;;;;;8.82;3.95;;;;;;;;;;4992326;28;25049;-69
2024/01/16 09:48:05;;;;;;;15.18;3.95;;;;;;;;;;4988306;28;25129;-72
2024/01/16 09:50:32;;;;;;;9.55;3.55;;;;;;;;;;5007412;28;25070;-71
2024/01/16 09:52:58;;;;;;;11.50;4.10;;;;;;;;;;5007904;28;25057;-74
2024/01/16 09:55:24;;;;;;;16.85;4.47;;;;;;;;;;5006756;28;25105;-74
2024/01/16 09:57:53;;;;;;;9.20;3.70;;;;;;;;;;4987662;28;25093;-73
2024/01/16 10:00:20;;;;;;;12.32;3.72;;;;;;;;;;4986461;28;25129;-69
2024/01/16 10:02:46;;;;;;;11.82;3.75;;;;;;;;;;5005582;28;25147;-70
2024/01/16 10:05:13;;;;;;;10.13;3.60;;;;;;;;;;4988002;28;25067;-69
2024/01/16 10:07:44;;;;;;;10.55;4.00;;;;;;;;;;5008453;28;25076;-75
2024/01/16 10:10:13;;;;;;;13.50;4.43;;;;;;;;;;5007537;28;25094;-72
2024/01/16 10:12:39;;;;;;;13.32;4.35;;;;;;;;;;5009839;28;25049;-74
2024/01/16 10:15:09;;;;;;;11.38;4.05;;;;;;;;;;4995311;28;25055;-73
2024/01/16 10:17:39;;;;;;;9.68;4.45;;;;;;;;;;5024352;28;25073;-72
2024/01/16 10:20:05;;;;;;;21.85;4.47;;;;;;;;;;4997367;28;25069;-74
2024/01/16 10:22:31;;;;;;;12.25;4.47;;;;;;;;;;5001509;28;25080;-71
2024/01/16 10:25:08;;;;;;;12.48;5.60;;;;;;;;;;5026036;28;25067;-71
2024/01/16 10:27:35;;;;;;;12.38;4.65;;;;;;;;;;5015048;28;25062;-75
2024/01/16 10:30:01;;;;;;;12.65;5.10;;;;;;;;;;4999122;28;25142;-73
2024/01/16 10:32:30;;;;;;;9.70;4.20;;;;;;;;;;5019470;28;25161;-75
2024/01/16 10:35:12;;;;;;;14.73;5.05;;;;;;;;;;5015414;28;25134;-71
2024/01/16 10:37:43;;;;;;;11.48;4.35;;;;;;;;;;5002399;28;25067;-74
2024/01/16 10:40:09;;;;;;;14.90;6.00;;;;;;;;;;5018496;28;25057;-73
2024/01/16 10:42:35;;;;;;;14.02;4.95;;;;;;;;;;5013911;28;25349;-72
2024/01/16 10:45:01;;;;;;;13.45;5.38;;;;;;;;;;4996418;28;25076;-72
2024/01/16 10:47:28;;;;;;;8.07;4.43;;;;;;;;;;4998510;28;25095;-74
2024/01/16 10:49:54;;;;;;;10.68;5.35;;;;;;;;;;4997122;28;25062;-74
2024/01/16 10:52:21;;;;;;;13.23;5.80;;;;;;;;;;5015958;28;25092;-73
2024/01/16 10:54:50;;;;;;;11.48;6.03;;;;;;;;;;4996211;28;25095;-68
2024/01/16 10:57:17;;;;;;;11.88;5.78;;;;;;;;;;5017862;28;25066;-74
2024/01/16 11:00:15;;;;;;;13.52;5.35;;;;;;;;;;5014840;28;25059;-70
2024/01/16 11:02:50;;;;;;;14.20;6.03;;;;;;;;;;4978641;28;25071;-73
2024/01/16 11:05:17;;;;;;;14.52;6.13;;;;;;;;;;5011153;28;25077;-70
2024/01/16 11:07:44;;;;;;;13.20;5.85;;;;;;;;;;5000707;28;25072;-72
2024/01/16 11:10:11;;;;;;;14.68;6.43;;;;;;;;;;5014894;28;25062;-72
2024/01/16 11:12:42;;;;;;;11.23;5.53;;;;;;;;;;4998867;28;25116;-72
2024/01/16 11:15:12;;;;;;;36.65;7.25;;;;;;;;;;5012912;28;25065;-71
2024/01/16 11:17:39;;;;;;;17.30;6.22;;;;;;;;;;5011767;28;25129;-72
2024/01/16 11:20:09;;;;;;;11.95;5.95;;;;;;;;;;4978001;28;25051;-72
2024/01/16 11:22:38;;;;;;;9.93;5.82;;;;;;;;;;4999975;28;25069;-72
2024/01/16 11:25:11;;;;;;;12.85;5.88;;;;;;;;;;5001129;28;25066;-73
2024/01/16 11:27:38;;;;;;;7.80;5.03;;;;;;;;;;5012540;28;25071;-72
2024/01/16 11:30:06;;;;;;;7.55;4.85;;;;;;;;;;5009410;28;25131;-69
2024/01/16 11:32:34;;;;;;;13.52;6.32;;;;;;;;;;5009684;28;25101;-74
2024/01/16 11:35:00;;;;;;;13.63;5.68;;;;;;;;;;4995599;28;25061;-74
2024/01/16 11:37:31;;;;;;;10.98;5.22;;;;;;;;;;5008906;28;25080;-73
2024/01/16 11:40:16;;;;;;;9.65;5.93;;;;;;;;;;5011538;28;25144;-75
2024/01/16 11:42:43;;;;;;;11.18;5.10;;;;;;;;;;5011393;28;25147;-74
2024/01/16 11:45:09;;;;;;;10.73;5.88;;;;;;;;;;4993279;28;25073;-75
2024/01/16 11:47:35;;;;;;;8.05;4.90;;;;;;;;;;4978252;28;25064;-75
2024/01/16 11:50:10;;;;;;;10.02;4.93;;;;;;;;;;4997380;28;25091;-70
2024/01/16 11:52:43;;;;;;;14.73;5.13;;;;;;;;;;5012744;28;25127;-76
2024/01/16 11:55:28;;;;;;;10.45;5.03;;;;;;;;;;4998670;28;25059;-72
2024/01/16 11:57:57;;;;;;;10.20;5.32;;;;;;;;;;5000156;28;25078;-76
2024/01/16 12:00:26;;;;;;;14.10;5.15;;;;;;;;;;4997113;28;25101;-72
2024/01/16 12:02:53;;;;;;;10.52;5.72;;;;;;;;;;5018630;28;25150;-73
2024/01/16 12:05:19;;;;;;;7.90;4.75;;;;;;;;;;5014507;28;25052;-72
2024/01/16 12:07:49;;;;;;;11.27;4.93;;;;;;;;;;5006605;28;25047;-72
2024/01/16 12:10:15;;;;;;;12.25;5.53;;;;;;;;;;5006142;28;25087;-72
2024/01/16 12:12:41;;;;;;;7.72;4.78;;;;;;;;;;4989700;28;25107;-70
2024/01/16 12:15:14;;;;;;;8.98;5.30;;;;;;;;;;5008200;28;25135;-72
2024/01/16 12:17:40;;;;;;;8.00;4.72;;;;;;;;;;4973584;28;25067;-73
2024/01/16 12:20:27;;;;;;;11.98;4.90;;;;;;;;;;5006598;28;25058;-74
2024/01/16 12:22:58;;;;;;;9.60;4.88;;;;;;;;;;5008048;28;25069;-70
2024/01/16 12:25:24;;;;;;;13.60;5.20;;;;;;;;;;5007904;28;25142;-70
2024/01/16 12:27:58;;;;;;;9.57;5.10;;;;;;;;;;4992382;28;25067;-73
2024/01/16 12:30:25;;;;;;;9.88;6.10;;;;;;;;;;4986665;28;25063;-72
2024/01/16 12:32:51;;;;;;;12.90;6.07;;;;;;;;;;5004946;28;25054;-72
2024/01/16 12:35:21;;;;;;;10.90;6.22;;;;;;;;;;4995711;28;25152;-71
2024/01/16 12:38:00;;;;;;;10.10;5.85;;;;;;;;;;4992788;28;25063;-74
2024/01/16 12:40:26;;;;;;;11.93;6.05;;;;;;;;;;5004886;28;25073;-73
2024/01/16 12:42:53;;;;;;;10.00;4.88;;;;;;;;;;4989822;28;25065;-73
2024/01/16 12:45:19;;;;;;;12.73;5.05;;;;;;;;;;5004775;28;25068;-73
2024/01/16 12:47:50;;;;;;;10.30;4.45;;;;;;;;;;4974064;28;25092;-69
2024/01/16 12:50:21;;;;;;;14.70;4.85;;;;;;;;;;4989480;28;25082;-69
2024/01/16 12:52:47;;;;;;;10.85;4.70;;;;;;;;;;5006343;28;25101;-72
2024/01/16 12:55:14;;;;;;;9.82;4.43;;;;;;;;;;4994165;28;25143;-74
2024/01/16 12:57:40;;;;;;;8.77;4.15;;;;;;;;;;4988475;28;25099;-75
2024/01/16 13:00:26;;;;;;;10.25;4.65;;;;;;;;;;5009290;28;25067;-70
2024/01/16 13:02:55;;;;;;;9.95;4.47;;;;;;;;;;4989704;28;25096;-71
2024/01/16 13:05:21;;;;;;;9.20;4.28;;;;;;;;;;5008058;28;25089;-71
2024/01/16 13:07:59;;;;;;;13.88;5.05;;;;;;;;;;4991042;28;25075;-73
2024/01/16 13:10:26;;;;;;;9.23;4.60;;;;;;;;;;5007325;28;25079;-68
2024/01/16 13:12:52;;;;;;;14.75;5.43;;;;;;;;;;4988926;28;25129;-73
2024/01/16 13:15:18;;;;;;;11.32;4.43;;;;;;;;;;5008716;28;25064;-69
2024/01/16 13:17:45;;;;;;;11.00;4.72;;;;;;;;;;4987759;28;25054;-72
2024/01/16 13:20:13;;;;;;;12.48;4.78;;;;;;;;;;5002730;28;25068;-71
2024/01/16 13:22:39;;;;;;;6.90;4.25;;;;;;;;;;5006760;28;25105;-73
2024/01/16 13:25:05;;;;;;;7.82;4.07;;;;;;;;;;5009173;28;25062;-75
2024/01/16 13:27:32;;;;;;;7.75;3.83;;;;;;;;;;5006904;28;25130;-71
2024/01/16 13:29:58;;;;;;;9.38;3.90;;;;;;;;;;5008659;28;25070;-69
2024/01/16 13:32:26;;;;;;;9.07;4.15;;;;;;;;;;5006569;28;25162;-72
2024/01/16 13:34:52;;;;;;;7.70;4.20;;;;;;;;;;5007443;28;25049;-71
2024/01/16 13:37:21;;;;;;;7.25;3.67;;;;;;;;;;5003752;28;25144;-74
2024/01/16 13:39:47;;;;;;;10.82;4.05;;;;;;;;;;5009747;28;25079;-72
2024/01/16 13:42:18;;;;;;;8.15;3.72;;;;;;;;;;4995824;28;25121;-71
2024/01/16 13:44:44;;;;;;;13.82;4.10;;;;;;;;;;5008846;28;25059;-72
2024/01/16 13:47:11;;;;;;;10.80;4.38;;;;;;;;;;5005186;28;25085;-73
2024/01/16 13:49:37;;;;;;;9.88;4.05;;;;;;;;;;4980466;28;25118;-74
2024/01/16 13:52:04;;;;;;;8.57;4.20;;;;;;;;;;4990396;28;25065;-70
2024/01/16 13:54:31;;;;;;;9.57;4.55;;;;;;;;;;4988462;28;25112;-71
2024/01/16 13:56:57;;;;;;;8.50;4.07;;;;;;;;;;4977938;28;25050;-71
2024/01/16 13:59:23;;;;;;;8.88;3.97;;;;;;;;;;4985349;28;25084;-73
2024/01/16 14:01:49;;;;;;;8.40;4.45;;;;;;;;;;5005194;28;25060;-72
2024/01/16 14:04:15;;;;;;;11.50;4.28;;;;;;;;;;4988985;28;25054;-71
2024/01/16 14:06:41;;;;;;;9.23;4.28;;;;;;;;;;4999028;28;25077;-71
2024/01/16 14:09:09;;;;;;;6.43;3.92;;;;;;;;;;5002823;28;25114;-71
2024/01/16 14:11:37;;;;;;;11.82;4.45;;;;;;;;;;4994166;28;25119;-70
2024/01/16 14:14:03;;;;;;;11.95;4.45;;;;;;;;;;5002419;28;25053;-71
2024/01/16 14:16:29;;;;;;;12.15;4.15;;;;;;;;;;4988822;28;25103;-72
2024/01/16 14:18:55;;;;;;;7.25;3.60;;;;;;;;;;4982866;28;25100;-71
2024/01/16 14:21:22;;;;;;;8.70;3.90;;;;;;;;;;4987425;28;25163;-73
2024/01/16 14:23:49;;;;;;;11.55;4.03;;;;;;;;;;4988083;28;25138;-71
2024/01/16 14:26:15;;;;;;;12.35;4.43;;;;;;;;;;5005016;28;25109;-71
2024/01/16 14:28:42;;;;;;;13.35;3.72;;;;;;;;;;4972161;28;25166;-70
2024/01/16 14:31:08;;;;;;;11.25;4.18;;;;;;;;;;4988525;28;25109;-72
2024/01/16 14:33:35;;;;;;;11.52;4.00;;;;;;;;;;5003546;28;25133;-72